Airport Name : Zaragoza AB

Other Name : Zaragoza AB

ICAO : LEZG

IATA : ZAZ

FAA :

Latitude : 41.666242

Longitude : -1.041553

Country : Spain

Local Date and Time : 07 Mar 2021 15:08

 

TAF (Terminal Aerodrome Forecast)

TAF LEZG 071100Z 0712/0812 11007KT 9999 SCT020 TX16/0714Z TN06/0806Z BECMG 0722/0724 30009KT TEMPO 0808/0812 31015G25KT

 

METAR (METeorological Aerodrome Report)

LEZG 071400Z 09005KT 040V130 9999 FEW030 15/07 Q1017

LEZG 071330Z 07005KT 030V110 9999 FEW020 15/07 Q1017

LEZG 071300Z 10004KT 050V170 9999 FEW020 15/07 Q1018

LEZG 071230Z 07006KT 030V110 9999 FEW020 14/07 Q1019

LEZG 071200Z 10006KT 060V150 9999 FEW020 14/08 Q1019

LEZG 071130Z 09006KT 050V140 9999 FEW020 13/07 Q1020

LEZG 071100Z 08006KT 050V110 9999 FEW020 12/08 Q1020

LEZG 071030Z 09006KT 050V140 9999 SCT015 12/07 Q1020

To Charter a Jet Click here.